createdAt,value
2018-08-27T00:01:01.660Z,39.60
2018-08-27T00:03:30.144Z,39.30
2018-08-27T00:05:59.347Z,39.00
2018-08-27T00:08:27.925Z,38.90
2018-08-27T00:10:56.581Z,38.90
2018-08-27T00:13:25.081Z,38.90
2018-08-27T00:15:53.702Z,39.00
2018-08-27T00:18:22.273Z,38.70
2018-08-27T00:20:51.323Z,38.70
2018-08-27T00:23:19.948Z,38.80
2018-08-27T00:25:49.389Z,38.90
2018-08-27T00:28:17.941Z,39.60
2018-08-27T00:30:47.288Z,38.70
2018-08-27T00:33:16.502Z,38.90
2018-08-27T00:35:45.679Z,39.10
2018-08-27T00:38:14.239Z,39.00
2018-08-27T00:40:50.903Z,39.10
2018-08-27T00:43:20.544Z,39.30
2018-08-27T00:45:50.107Z,39.40
2018-08-27T00:48:19.489Z,39.40
2018-08-27T00:50:48.974Z,39.60
2018-08-27T00:53:17.534Z,40.10
2018-08-27T00:55:46.110Z,40.30
2018-08-27T00:58:14.733Z,40.60
2018-08-27T01:00:43.311Z,40.80
2018-08-27T01:03:11.813Z,40.90
2018-08-27T01:05:40.370Z,41.00
2018-08-27T01:08:08.897Z,41.10
2018-08-27T01:10:37.424Z,41.30
2018-08-27T01:13:06.230Z,41.60
2018-08-27T01:15:34.830Z,41.80
2018-08-27T01:18:04.641Z,42.10
2018-08-27T01:20:33.413Z,42.10
2018-08-27T01:23:01.969Z,42.60
2018-08-27T01:25:31.156Z,43.00
2018-08-27T01:27:59.622Z,43.10
2018-08-27T01:30:28.421Z,43.50
2018-08-27T01:32:56.929Z,43.50
2018-08-27T01:35:25.452Z,43.80
2018-08-27T01:37:53.956Z,44.40
2018-08-27T01:40:22.602Z,44.40
2018-08-27T01:42:51.073Z,44.40
2018-08-27T01:45:19.804Z,44.40
2018-08-27T01:47:49.244Z,44.50
2018-08-27T01:50:17.754Z,44.40
2018-08-27T01:52:46.233Z,44.40
2018-08-27T01:55:14.760Z,44.50
2018-08-27T01:57:43.565Z,44.40
2018-08-27T02:00:12.223Z,44.70
2018-08-27T02:02:41.288Z,45.00
2018-08-27T02:05:11.317Z,45.40
2018-08-27T02:07:39.806Z,45.70
2018-08-27T02:10:08.341Z,45.70
2018-08-27T02:12:36.845Z,45.50
2018-08-27T02:15:05.443Z,46.20
2018-08-27T02:17:34.133Z,46.40
2018-08-27T02:20:02.714Z,46.40
2018-08-27T02:22:31.250Z,46.50
2018-08-27T02:24:59.753Z,46.80
2018-08-27T02:27:28.604Z,47.00
2018-08-27T02:29:57.114Z,47.10
2018-08-27T02:32:26.329Z,47.40
2018-08-27T02:34:55.050Z,47.80
2018-08-27T02:37:23.569Z,47.90
2018-08-27T02:39:52.055Z,48.00
2018-08-27T02:42:20.604Z,48.20
2018-08-27T02:44:49.213Z,48.40
2018-08-27T02:47:18.049Z,48.50
2018-08-27T02:49:46.806Z,48.60
2018-08-27T02:52:15.454Z,48.70
2018-08-27T02:54:43.986Z,48.40
2018-08-27T02:57:12.928Z,48.80
2018-08-27T02:59:41.410Z,48.70
2018-08-27T03:02:10.386Z,48.60
2018-08-27T03:04:38.921Z,48.90
2018-08-27T03:07:07.467Z,48.60
2018-08-27T03:09:35.991Z,49.00
2018-08-27T03:12:04.519Z,48.40
2018-08-27T03:14:33.078Z,48.40
2018-08-27T03:17:01.557Z,48.80
2018-08-27T03:19:30.072Z,49.60
2018-08-27T03:21:58.643Z,50.60
2018-08-27T03:24:27.295Z,50.60
2018-08-27T03:26:55.802Z,50.60
2018-08-27T03:29:24.396Z,50.60
2018-08-27T03:31:52.891Z,50.60
2018-08-27T03:34:23.803Z,50.60
2018-08-27T03:36:53.068Z,50.60
2018-08-27T03:39:21.688Z,50.90
2018-08-27T03:41:50.197Z,51.60
2018-08-27T03:44:19.025Z,51.80
2018-08-27T03:46:47.857Z,52.10
2018-08-27T03:49:16.940Z,52.10
2018-08-27T03:51:45.495Z,52.10
2018-08-27T03:54:14.050Z,52.50
2018-08-27T03:56:42.572Z,52.80
2018-08-27T03:59:11.848Z,52.80
2018-08-27T04:01:40.452Z,52.70
2018-08-27T04:04:09.018Z,53.00
2018-08-27T04:06:37.512Z,53.10
2018-08-27T04:09:07.915Z,53.50
2018-08-27T04:11:36.407Z,53.20
2018-08-27T04:14:05.357Z,53.20
2018-08-27T04:16:33.853Z,53.30
2018-08-27T04:19:02.708Z,53.20
2018-08-27T04:21:31.702Z,53.10
2018-08-27T04:24:01.136Z,53.30
2018-08-27T04:26:29.656Z,53.70
2018-08-27T04:28:58.230Z,53.50
2018-08-27T04:31:27.392Z,53.60
2018-08-27T04:33:55.962Z,53.60
2018-08-27T04:36:25.356Z,53.70
2018-08-27T04:38:54.087Z,54.20
2018-08-27T04:41:22.865Z,54.40
2018-08-27T04:43:52.244Z,54.00
2018-08-27T04:46:21.084Z,53.80
2018-08-27T04:48:50.317Z,53.70
2018-08-27T04:51:18.839Z,53.50
2018-08-27T04:53:47.388Z,53.20
2018-08-27T04:56:16.477Z,52.60
2018-08-27T04:58:47.127Z,51.20
2018-08-27T05:01:16.220Z,51.30
2018-08-27T05:03:44.748Z,51.40
2018-08-27T05:06:13.238Z,51.50
2018-08-27T05:08:41.798Z,52.50
2018-08-27T05:11:10.437Z,51.70
2018-08-27T05:13:39.099Z,51.50
2018-08-27T05:16:07.620Z,50.80
2018-08-27T05:18:36.712Z,50.10
2018-08-27T05:21:05.534Z,49.60
2018-08-27T05:23:34.372Z,49.10
2018-08-27T05:26:02.861Z,48.70
2018-08-27T05:28:31.382Z,48.20
2018-08-27T05:30:59.962Z,47.80
2018-08-27T05:33:28.573Z,47.60
2018-08-27T05:35:57.284Z,47.10
2018-08-27T05:38:26.732Z,46.50
2018-08-27T05:40:55.872Z,46.10
2018-08-27T05:43:24.379Z,46.10
2018-08-27T05:45:53.006Z,46.10
2018-08-27T05:48:21.542Z,45.50
2018-08-27T05:50:50.106Z,45.10
2018-08-27T05:53:18.625Z,44.70
2018-08-27T05:55:47.187Z,44.40
2018-08-27T05:58:16.060Z,44.00
2018-08-27T06:00:44.737Z,43.60
2018-08-27T06:03:13.272Z,43.70
2018-08-27T06:05:41.942Z,43.60
2018-08-27T06:08:10.626Z,43.80
2018-08-27T06:10:39.179Z,43.30
2018-08-27T06:13:08.631Z,43.30
2018-08-27T06:15:37.164Z,43.40
2018-08-27T06:18:06.186Z,43.60
2018-08-27T06:20:34.825Z,43.30
2018-08-27T06:23:03.411Z,43.20
2018-08-27T06:25:31.965Z,43.00
2018-08-27T06:28:00.627Z,42.40
2018-08-27T06:30:29.402Z,42.30
2018-08-27T06:32:59.012Z,42.50
2018-08-27T06:35:28.161Z,41.60
2018-08-27T06:37:56.800Z,40.90
2018-08-27T06:40:25.320Z,41.30
2018-08-27T06:42:54.034Z,40.40
2018-08-27T06:45:22.618Z,39.40
2018-08-27T06:47:51.257Z,39.30
2018-08-27T06:50:20.203Z,39.40
2018-08-27T06:52:48.862Z,39.70
2018-08-27T06:55:17.428Z,40.40
2018-08-27T06:57:46.010Z,40.10
2018-08-27T07:00:14.653Z,40.80
2018-08-27T07:02:43.452Z,41.70
2018-08-27T07:05:12.472Z,40.80
2018-08-27T07:07:41.443Z,41.10
2018-08-27T07:10:09.982Z,40.60
2018-08-27T07:12:38.477Z,39.30
2018-08-27T07:15:08.140Z,39.20
2018-08-27T07:17:36.695Z,39.30
2018-08-27T07:20:06.837Z,39.30
2018-08-27T07:22:35.597Z,38.70
2018-08-27T07:25:04.532Z,36.90
2018-08-27T07:27:33.334Z,34.80
2018-08-27T07:30:02.783Z,34.10
2018-08-27T07:32:31.466Z,32.30
2018-08-27T07:35:00.035Z,31.30
2018-08-27T07:37:29.169Z,31.30
2018-08-27T07:39:57.795Z,30.00
2018-08-27T07:42:26.319Z,29.10
2018-08-27T07:44:55.913Z,29.30
2018-08-27T07:47:24.422Z,29.40
2018-08-27T07:49:53.082Z,28.30
2018-08-27T07:52:21.782Z,27.60
2018-08-27T07:54:50.549Z,27.30
2018-08-27T07:57:19.388Z,27.10
2018-08-27T07:59:48.619Z,26.40
2018-08-27T08:02:17.458Z,25.50
2018-08-27T08:04:46.361Z,25.80
2018-08-27T08:07:15.779Z,25.20
2018-08-27T08:09:44.840Z,24.60
2018-08-27T08:12:13.536Z,24.70
2018-08-27T08:14:42.092Z,24.10
2018-08-27T08:17:10.602Z,23.90
2018-08-27T08:19:39.152Z,23.30
2018-08-27T08:22:07.769Z,23.40
2018-08-27T08:24:36.328Z,22.90
2018-08-27T08:27:05.153Z,22.60
2018-08-27T08:29:33.748Z,22.10
2018-08-27T08:32:02.254Z,22.40
2018-08-27T08:34:30.959Z,21.90
2018-08-27T08:36:59.479Z,21.70
2018-08-27T08:39:27.969Z,21.70
2018-08-27T08:41:56.551Z,21.40
2018-08-27T08:44:25.220Z,20.00
2018-08-27T08:46:55.199Z,20.00
2018-08-27T08:49:23.735Z,20.10
2018-08-27T08:51:52.278Z,20.20
2018-08-27T08:54:20.973Z,20.30
2018-08-27T08:56:49.565Z,20.40
2018-08-27T08:59:18.054Z,20.60
2018-08-27T09:01:46.706Z,19.50
2018-08-27T09:04:15.158Z,19.00
2018-08-27T09:06:43.710Z,18.60
2018-08-27T09:09:12.255Z,18.30
2018-08-27T09:11:40.764Z,18.50
2018-08-27T09:14:09.291Z,18.50
2018-08-27T09:16:37.815Z,18.50
2018-08-27T09:19:06.387Z,19.20
2018-08-27T09:21:35.141Z,18.50
2018-08-27T09:24:03.674Z,18.70
2018-08-27T09:26:32.903Z,18.60
2018-08-27T09:29:01.463Z,19.30
2018-08-27T09:31:30.536Z,20.00
2018-08-27T09:33:59.022Z,20.00
2018-08-27T09:36:28.175Z,20.00
2018-08-27T09:38:57.139Z,20.00
2018-08-27T09:41:25.652Z,20.10
2018-08-27T09:43:54.224Z,20.20
2018-08-27T09:46:22.834Z,19.40
2018-08-27T09:48:51.443Z,19.80
2018-08-27T09:51:19.940Z,19.80
2018-08-27T09:53:48.513Z,19.20
2018-08-27T09:56:17.113Z,19.00
2018-08-27T09:58:45.912Z,18.70
2018-08-27T10:01:19.624Z,18.60
2018-08-27T10:03:48.272Z,18.50
2018-08-27T10:06:16.786Z,17.70
2018-08-27T10:08:45.400Z,17.50
2018-08-27T10:11:13.889Z,16.90
2018-08-27T10:13:42.539Z,16.60
2018-08-27T10:16:11.077Z,15.90
2018-08-27T10:18:39.637Z,16.00
2018-08-27T10:21:08.463Z,16.20
2018-08-27T10:23:37.348Z,15.80
2018-08-27T10:26:06.200Z,15.60
2018-08-27T10:28:34.836Z,16.20
2018-08-27T10:31:03.377Z,16.20
2018-08-27T10:33:32.354Z,15.70
2018-08-27T10:36:00.854Z,16.60
2018-08-27T10:38:29.766Z,16.30
2018-08-27T10:41:00.026Z,16.20
2018-08-27T10:43:29.149Z,16.20
2018-08-27T10:45:57.734Z,16.40
2018-08-27T10:48:26.797Z,16.10
2018-08-27T10:50:55.551Z,16.50
2018-08-27T10:53:24.074Z,16.30
2018-08-27T10:55:52.667Z,16.00
2018-08-27T10:58:22.284Z,15.90
2018-08-27T11:00:51.429Z,16.40
2018-08-27T11:03:20.071Z,15.80
2018-08-27T11:05:48.697Z,16.10
2018-08-27T11:08:17.260Z,16.50
2018-08-27T11:10:46.148Z,15.90
2018-08-27T11:13:14.589Z,16.20
2018-08-27T11:15:43.864Z,15.90
2018-08-27T11:18:12.618Z,15.60
2018-08-27T11:20:41.772Z,15.70
2018-08-27T11:23:10.270Z,15.60
2018-08-27T11:25:38.872Z,16.00
2018-08-27T11:28:07.838Z,16.10
2018-08-27T11:30:36.908Z,16.40
2018-08-27T11:33:05.502Z,16.70
2018-08-27T11:35:34.160Z,16.50
2018-08-27T11:38:02.730Z,17.00
2018-08-27T11:40:31.314Z,17.50
2018-08-27T11:43:00.694Z,17.50
2018-08-27T11:45:29.237Z,17.60
2018-08-27T11:47:57.792Z,17.60
2018-08-27T11:50:26.521Z,17.80
2018-08-27T11:52:55.269Z,17.80
2018-08-27T11:55:24.003Z,17.80
2018-08-27T11:57:52.570Z,17.80
2018-08-27T12:00:26.312Z,17.90
2018-08-27T12:02:55.174Z,17.70
2018-08-27T12:05:23.981Z,18.10
2018-08-27T12:07:52.510Z,17.70
2018-08-27T12:10:21.478Z,16.10
2018-08-27T12:12:50.034Z,16.20
2018-08-27T12:15:18.676Z,15.40
2018-08-27T12:17:47.320Z,15.10
2018-08-27T12:20:16.227Z,14.50
2018-08-27T12:22:44.786Z,14.80
2018-08-27T12:25:13.511Z,14.20
2018-08-27T12:27:42.089Z,14.30
2018-08-27T12:30:10.812Z,14.30
2018-08-27T12:32:39.562Z,14.10
2018-08-27T12:35:08.368Z,14.40
2018-08-27T12:37:36.973Z,13.40
2018-08-27T12:40:05.850Z,13.30
2018-08-27T12:42:34.330Z,13.10
2018-08-27T12:45:03.123Z,13.50
2018-08-27T12:47:31.764Z,13.20
2018-08-27T12:50:00.699Z,12.20
2018-08-27T12:52:29.230Z,12.10
2018-08-27T12:54:58.838Z,12.60
2018-08-27T12:57:27.392Z,12.00
2018-08-27T12:59:57.139Z,12.50
2018-08-27T13:02:25.720Z,13.00
2018-08-27T13:04:54.251Z,13.10
2018-08-27T13:07:22.759Z,13.20
2018-08-27T13:09:51.320Z,13.60
2018-08-27T13:12:19.939Z,13.60
2018-08-27T13:14:48.561Z,13.00
2018-08-27T13:17:17.719Z,13.20
2018-08-27T13:19:46.286Z,13.90
2018-08-27T13:22:15.155Z,13.50
2018-08-27T13:24:44.195Z,13.80
2018-08-27T13:27:12.807Z,12.00
2018-08-27T13:29:41.392Z,12.50
2018-08-27T13:32:09.941Z,11.20
2018-08-27T13:34:38.690Z,10.20
2018-08-27T13:37:07.261Z,8.60
2018-08-27T13:39:35.899Z,9.00
2018-08-27T13:42:04.441Z,10.10
2018-08-27T13:44:33.165Z,10.70
2018-08-27T13:47:01.682Z,10.60
2018-08-27T13:49:31.120Z,9.20
2018-08-27T13:52:02.127Z,9.20
2018-08-27T13:54:36.436Z,9.80
2018-08-27T13:57:04.960Z,9.90
2018-08-27T13:59:33.609Z,10.50
2018-08-27T14:02:04.168Z,10.90
2018-08-27T14:04:32.756Z,10.80
2018-08-27T14:07:01.335Z,10.90
2018-08-27T14:09:29.959Z,11.00
2018-08-27T14:11:59.419Z,10.40
2018-08-27T14:14:28.425Z,11.40
2018-08-27T14:16:57.688Z,10.70
2018-08-27T14:19:26.369Z,10.20
2018-08-27T14:21:54.828Z,10.70
2018-08-27T14:24:23.383Z,11.90
2018-08-27T14:26:54.947Z,12.00
2018-08-27T14:29:23.735Z,11.80
2018-08-27T14:31:52.409Z,11.50
2018-08-27T14:34:21.723Z,11.70
2018-08-27T14:36:50.673Z,11.60
2018-08-27T14:39:19.331Z,11.50
2018-08-27T14:41:49.114Z,12.10
2018-08-27T14:44:17.955Z,11.20
2018-08-27T14:46:46.740Z,12.00
2018-08-27T14:49:15.316Z,12.90
2018-08-27T14:51:43.847Z,13.00
2018-08-27T14:54:12.597Z,13.30
2018-08-27T14:56:41.238Z,13.80
2018-08-27T14:59:09.886Z,14.00
2018-08-27T15:01:38.459Z,14.40
2018-08-27T15:04:07.076Z,14.50
2018-08-27T15:06:35.603Z,14.80
2018-08-27T15:09:05.479Z,15.20
2018-08-27T15:11:34.082Z,15.50
2018-08-27T15:14:03.329Z,16.60
2018-08-27T15:16:32.074Z,16.40
2018-08-27T15:19:00.630Z,16.80
2018-08-27T15:21:29.217Z,16.90
2018-08-27T15:23:57.861Z,16.90
2018-08-27T15:26:26.553Z,17.00
2018-08-27T15:28:55.119Z,17.00
2018-08-27T15:31:23.694Z,17.70
2018-08-27T15:33:52.298Z,18.10
2018-08-27T15:36:21.441Z,18.40
2018-08-27T15:38:50.026Z,18.60
2018-08-27T15:41:18.574Z,18.50
2018-08-27T15:43:48.356Z,18.20
2018-08-27T15:46:22.154Z,17.70
2018-08-27T15:48:50.748Z,17.80
2018-08-27T15:51:19.397Z,17.30
2018-08-27T15:53:47.854Z,17.50
2018-08-27T15:56:16.408Z,17.20
2018-08-27T15:58:46.319Z,17.50
2018-08-27T16:01:15.154Z,17.80
2018-08-27T16:03:45.011Z,17.90
2018-08-27T16:06:14.163Z,17.80
2018-08-27T16:08:43.604Z,17.90
2018-08-27T16:11:12.843Z,18.40
2018-08-27T16:13:41.443Z,18.00
2018-08-27T16:16:11.407Z,18.20
2018-08-27T16:18:40.000Z,18.40
2018-08-27T16:21:10.346Z,18.50
2018-08-27T16:23:39.620Z,18.50
2018-08-27T16:26:09.071Z,18.70
2018-08-27T16:28:37.579Z,19.00
2018-08-27T16:31:06.655Z,19.50
2018-08-27T16:33:36.014Z,19.40
2018-08-27T16:36:04.603Z,19.50
2018-08-27T16:38:33.111Z,19.90
2018-08-27T16:41:02.591Z,20.00
2018-08-27T16:43:31.463Z,20.40
2018-08-27T16:46:00.225Z,20.70
2018-08-27T16:48:28.805Z,21.60
2018-08-27T16:50:57.371Z,21.70
2018-08-27T16:53:25.911Z,22.30
2018-08-27T16:55:54.518Z,21.70
2018-08-27T16:58:23.110Z,21.60
2018-08-27T17:00:51.694Z,21.50
2018-08-27T17:03:20.258Z,21.80
2018-08-27T17:05:48.881Z,22.50
2018-08-27T17:08:18.093Z,22.40
2018-08-27T17:10:46.873Z,22.50
2018-08-27T17:13:16.995Z,22.80
2018-08-27T17:15:45.788Z,22.90
2018-08-27T17:18:14.350Z,23.30
2018-08-27T17:20:43.111Z,23.50
2018-08-27T17:23:12.622Z,23.60
2018-08-27T17:25:42.200Z,23.80
2018-08-27T17:28:10.785Z,23.90
2018-08-27T17:30:40.383Z,24.20
2018-08-27T17:33:08.970Z,24.50
2018-08-27T17:35:38.596Z,24.60
2018-08-27T17:38:07.625Z,24.70
2018-08-27T17:40:36.309Z,24.80
2018-08-27T17:43:05.413Z,25.10
2018-08-27T17:45:34.034Z,25.60
2018-08-27T17:48:02.675Z,26.00
2018-08-27T17:50:31.253Z,26.30
2018-08-27T17:53:00.098Z,26.80
2018-08-27T17:55:28.721Z,27.00
2018-08-27T17:57:57.490Z,27.40
2018-08-27T18:00:27.499Z,27.60
2018-08-27T18:02:56.692Z,28.10
2018-08-27T18:05:27.397Z,28.40
2018-08-27T18:07:56.066Z,28.40
2018-08-27T18:10:25.415Z,28.80
2018-08-27T18:12:54.207Z,29.20
2018-08-27T18:15:23.018Z,29.60
2018-08-27T18:17:52.150Z,29.80
2018-08-27T18:20:21.007Z,29.70
2018-08-27T18:22:50.450Z,30.00
2018-08-27T18:25:20.297Z,30.40
2018-08-27T18:27:49.016Z,31.70
2018-08-27T18:30:17.631Z,31.50
2018-08-27T18:32:46.729Z,31.60
2018-08-27T18:35:15.469Z,31.50
2018-08-27T18:37:44.042Z,31.50
2018-08-27T18:40:13.853Z,31.30
2018-08-27T18:42:42.566Z,31.40
2018-08-27T18:45:11.274Z,31.30
2018-08-27T18:47:39.992Z,32.00
2018-08-27T18:50:09.890Z,32.60
2018-08-27T18:52:38.632Z,32.70
2018-08-27T18:55:08.490Z,32.90
2018-08-27T18:57:37.238Z,33.30
2018-08-27T19:00:06.427Z,33.60
2018-08-27T19:02:34.962Z,33.40
2018-08-27T19:05:03.555Z,33.80
2018-08-27T19:07:32.856Z,33.90
2018-08-27T19:10:01.543Z,34.00
2018-08-27T19:12:31.443Z,34.40
2018-08-27T19:15:01.067Z,34.60
2018-08-27T19:17:29.987Z,34.70
2018-08-27T19:19:58.574Z,35.20
2018-08-27T19:22:28.129Z,35.30
2018-08-27T19:24:56.675Z,35.70
2018-08-27T19:27:25.355Z,35.90
2018-08-27T19:29:53.950Z,36.00
2018-08-27T19:32:22.899Z,36.30
2018-08-27T19:34:51.552Z,36.60
2018-08-27T19:37:21.831Z,37.20
2018-08-27T19:39:50.542Z,37.40
2018-08-27T19:42:19.560Z,38.20
2018-08-27T19:44:48.283Z,38.20
2018-08-27T19:47:16.914Z,38.10
2018-08-27T19:49:45.692Z,38.80
2018-08-27T19:52:14.716Z,39.10
2018-08-27T19:54:44.092Z,39.40
2018-08-27T19:57:13.673Z,39.40
2018-08-27T19:59:43.021Z,39.30
2018-08-27T20:02:12.326Z,39.70
2018-08-27T20:04:41.231Z,40.20
2018-08-27T20:07:10.474Z,40.30
2018-08-27T20:09:39.055Z,40.40
2018-08-27T20:12:07.696Z,40.70
2018-08-27T20:14:36.394Z,40.60
2018-08-27T20:17:05.245Z,41.10
2018-08-27T20:19:33.794Z,40.90
2018-08-27T20:22:02.626Z,41.70
2018-08-27T20:24:31.176Z,41.90
2018-08-27T20:26:59.744Z,42.10
2018-08-27T20:29:28.248Z,42.20
2018-08-27T20:31:56.815Z,42.80
2018-08-27T20:34:25.344Z,42.90
2018-08-27T20:36:54.002Z,43.30
2018-08-27T20:39:23.080Z,43.80
2018-08-27T20:41:51.933Z,44.00
2018-08-27T20:44:20.726Z,44.50
2018-08-27T20:46:49.362Z,44.40
2018-08-27T20:49:17.999Z,44.30
2018-08-27T20:51:46.783Z,44.30
2018-08-27T20:54:15.466Z,44.20
2018-08-27T20:56:44.643Z,44.20
2018-08-27T20:59:14.383Z,44.20
2018-08-27T21:01:42.960Z,44.20
2018-08-27T21:04:12.066Z,44.70
2018-08-27T21:06:40.802Z,45.20
2018-08-27T21:09:09.330Z,45.40
2018-08-27T21:11:38.019Z,45.70
2018-08-27T21:15:15.831Z,45.70
2018-08-27T21:17:45.983Z,45.80
2018-08-27T21:20:15.435Z,46.30
2018-08-27T21:22:44.007Z,46.20
2018-08-27T21:25:13.405Z,46.40
2018-08-27T21:27:42.714Z,46.40
2018-08-27T21:30:13.025Z,46.50
2018-08-27T21:32:41.959Z,46.80
2018-08-27T21:35:10.859Z,46.90
2018-08-27T21:37:39.434Z,47.30
2018-08-27T21:40:08.304Z,47.10
2018-08-27T21:42:37.611Z,47.40
2018-08-27T21:45:06.354Z,47.40
2018-08-27T21:47:34.920Z,47.70
2018-08-27T21:50:03.753Z,47.60
2018-08-27T21:52:32.539Z,47.70
2018-08-27T21:55:01.116Z,48.00
2018-08-27T21:57:29.817Z,48.00
2018-08-27T21:59:58.525Z,48.10
2018-08-27T22:02:32.442Z,48.10
2018-08-27T22:10:44.584Z,48.50
2018-08-27T22:13:13.018Z,49.00
2018-08-27T22:15:41.545Z,49.20
2018-08-27T22:18:10.102Z,48.80
2018-08-27T22:20:38.633Z,48.70
2018-08-27T22:23:07.966Z,49.40
2018-08-27T22:25:37.083Z,49.70
2018-08-27T22:28:05.583Z,50.20
2018-08-27T22:30:34.639Z,50.40
2018-08-27T22:33:03.734Z,50.40
2018-08-27T22:35:32.305Z,50.40
2018-08-27T22:38:00.789Z,50.40
2018-08-27T22:40:30.113Z,50.40
2018-08-27T22:42:59.326Z,50.50
2018-08-27T22:45:27.847Z,50.70
2018-08-27T22:47:56.915Z,51.00
2018-08-27T22:50:26.230Z,51.20
2018-08-27T22:52:54.726Z,51.40
2018-08-27T22:55:23.485Z,51.70
2018-08-27T22:57:51.987Z,51.80
2018-08-27T23:00:24.760Z,51.90
2018-08-27T23:02:58.523Z,52.30
2018-08-27T23:05:27.048Z,52.60
2018-08-27T23:07:55.534Z,52.80
2018-08-27T23:10:24.075Z,52.80
2018-08-27T23:12:52.847Z,52.70
2018-08-27T23:15:21.516Z,52.60
2018-08-27T23:17:50.011Z,52.70
2018-08-27T23:20:18.522Z,53.20
2018-08-27T23:22:47.301Z,53.50
2018-08-27T23:25:15.855Z,53.60
2018-08-27T23:27:44.439Z,54.10
2018-08-27T23:30:12.970Z,54.30
2018-08-27T23:32:41.548Z,53.70
2018-08-27T23:35:10.098Z,54.30
2018-08-27T23:37:38.684Z,54.60
2018-08-27T23:40:07.556Z,54.50
2018-08-27T23:42:37.445Z,53.50
2018-08-27T23:45:06.262Z,54.40
2018-08-27T23:47:34.719Z,54.60
2018-08-27T23:50:03.582Z,54.70
2018-08-27T23:52:32.232Z,55.00
2018-08-27T23:55:01.638Z,55.30
2018-08-27T23:57:30.172Z,54.40
2018-08-27T23:59:58.701Z,54.80
